KHRJ

Harnett Regional Jetport Airport

Erwin, North Carolina, USA
METAR KHRJ 171630Z AUTO 22006KT 10SM SCT038 32/22 A3013 RMK AO2 T03150218
Observed Flight Rules
Aug-17 @ 16:30 UTC (22 minutes ago) Visual Flight Rules
Wind Visibility Clouds
220° at 6 knots 10 miles
  • Scattered at 3,800' AGL
Temperatures Readings
Current 32°C / 90°F
Dewpoint 22°C / 72°F
Humidity 55%
Altimeter 30.13" Hg
Pressure 1020 hPa
Elevation 60
METAR KHRJ 171630Z AUTO 22006KT 10SM SCT038 32/22 A3013 RMK AO2 T03150218
Observed Flight Rules
Aug-17 @ 16:30 UTC
(22 minutes ago)
VFR
Wind Visibility
220° at 6 knots 10 miles
Clouds
  • Scattered at 3,800' AGL
Temperature Dewpoint
32°C / 90°F 22°C / 72°F
Humidity Altimeter Pressure
55% 30.13" Hg 1020 hPa